sensor_id;sensor_type;location;lat;lon;timestamp;pressure;altitude;pressure_sealevel;temperature;humidity
8705;BME280;4389;41.932;25.904;2023-06-14T00:00:45;100131.78;;;21.36;77.87
8705;BME280;4389;41.932;25.904;2023-06-14T00:03:14;100134.66;;;21.41;77.82
8705;BME280;4389;41.932;25.904;2023-06-14T00:05:44;100136.81;;;21.19;78.34
8705;BME280;4389;41.932;25.904;2023-06-14T00:08:12;100129.38;;;21.21;78.63
8705;BME280;4389;41.932;25.904;2023-06-14T00:10:39;100134.75;;;21.21;78.23
8705;BME280;4389;41.932;25.904;2023-06-14T00:13:07;100129.13;;;21.29;77.77
8705;BME280;4389;41.932;25.904;2023-06-14T00:15:34;100124.34;;;21.31;77.56
8705;BME280;4389;41.932;25.904;2023-06-14T00:18:02;100128.91;;;21.31;77.67
8705;BME280;4389;41.932;25.904;2023-06-14T00:20:31;100119.41;;;21.28;77.93
8705;BME280;4389;41.932;25.904;2023-06-14T00:23:00;100124.84;;;21.15;78.47
8705;BME280;4389;41.932;25.904;2023-06-14T00:25:27;100130.63;;;21.12;78.60
8705;BME280;4389;41.932;25.904;2023-06-14T00:27:54;100135.59;;;21.09;78.83
8705;BME280;4389;41.932;25.904;2023-06-14T00:30:21;100119.44;;;21.15;78.64
8705;BME280;4389;41.932;25.904;2023-06-14T00:32:48;100123.78;;;21.16;78.24
8705;BME280;4389;41.932;25.904;2023-06-14T00:35:15;100125.91;;;21.01;78.53
8705;BME280;4389;41.932;25.904;2023-06-14T00:37:42;100114.94;;;20.96;79.02
8705;BME280;4389;41.932;25.904;2023-06-14T00:40:11;100117.84;;;21.01;79.03
8705;BME280;4389;41.932;25.904;2023-06-14T00:42:38;100114.53;;;20.99;79.45
8705;BME280;4389;41.932;25.904;2023-06-14T00:45:05;100113.50;;;21.00;79.18
8705;BME280;4389;41.932;25.904;2023-06-14T00:47:32;100109.16;;;20.99;79.21
8705;BME280;4389;41.932;25.904;2023-06-14T00:50:00;100112.47;;;20.95;79.08
8705;BME280;4389;41.932;25.904;2023-06-14T00:52:28;100098.41;;;20.86;79.84
8705;BME280;4389;41.932;25.904;2023-06-14T00:54:54;100098.81;;;20.83;80.39
8705;BME280;4389;41.932;25.904;2023-06-14T00:57:23;100104.63;;;20.80;80.88
8705;BME280;4389;41.932;25.904;2023-06-14T00:59:50;100099.25;;;20.74;81.09
8705;BME280;4389;41.932;25.904;2023-06-14T01:02:18;100103.84;;;20.54;81.96
8705;BME280;4389;41.932;25.904;2023-06-14T01:04:47;100095.56;;;20.55;82.32
8705;BME280;4389;41.932;25.904;2023-06-14T01:07:20;100096.81;;;20.46;82.78
8705;BME280;4389;41.932;25.904;2023-06-14T01:10:00;100096.81;;;20.33;83.27
8705;BME280;4389;41.932;25.904;2023-06-14T01:12:38;100096.59;;;20.41;83.21
8705;BME280;4389;41.932;25.904;2023-06-14T01:15:07;100102.00;;;20.48;82.79
8705;BME280;4389;41.932;25.904;2023-06-14T01:17:35;100098.28;;;20.42;82.75
8705;BME280;4389;41.932;25.904;2023-06-14T01:20:08;100092.28;;;20.27;83.43
8705;BME280;4389;41.932;25.904;2023-06-14T01:22:50;100102.00;;;20.35;83.35
8705;BME280;4389;41.932;25.904;2023-06-14T01:25:17;100102.84;;;20.22;83.54
8705;BME280;4389;41.932;25.904;2023-06-14T01:27:47;100098.50;;;20.08;84.01
8705;BME280;4389;41.932;25.904;2023-06-14T01:30:15;100104.69;;;20.28;83.50
8705;BME280;4389;41.932;25.904;2023-06-14T01:32:43;100104.28;;;20.18;83.58
8705;BME280;4389;41.932;25.904;2023-06-14T01:35:11;100103.44;;;20.24;83.62
8705;BME280;4389;41.932;25.904;2023-06-14T01:37:39;100103.88;;;20.21;83.89
8705;BME280;4389;41.932;25.904;2023-06-14T01:40:09;100102.63;;;20.17;83.96
8705;BME280;4389;41.932;25.904;2023-06-14T01:42:38;100109.44;;;20.13;84.03
8705;BME280;4389;41.932;25.904;2023-06-14T01:45:07;100103.44;;;20.11;84.32
8705;BME280;4389;41.932;25.904;2023-06-14T01:47:34;100100.94;;;20.03;84.63
8705;BME280;4389;41.932;25.904;2023-06-14T01:50:01;100105.28;;;19.98;84.68
8705;BME280;4389;41.932;25.904;2023-06-14T01:52:28;100096.38;;;19.97;85.80
8705;BME280;4389;41.932;25.904;2023-06-14T01:54:55;100113.91;;;19.87;86.47
8705;BME280;4389;41.932;25.904;2023-06-14T01:57:25;100105.59;;;19.62;87.91
8705;BME280;4389;41.932;25.904;2023-06-14T01:59:52;100104.94;;;19.47;88.65
8705;BME280;4389;41.932;25.904;2023-06-14T02:02:19;100105.31;;;19.31;89.47
8705;BME280;4389;41.932;25.904;2023-06-14T02:04:46;100099.94;;;19.31;89.92
8705;BME280;4389;41.932;25.904;2023-06-14T02:07:14;100097.88;;;19.33;90.10
8705;BME280;4389;41.932;25.904;2023-06-14T02:09:41;100096.00;;;19.27;90.35
8705;BME280;4389;41.932;25.904;2023-06-14T02:12:08;100101.44;;;19.06;91.35
8705;BME280;4389;41.932;25.904;2023-06-14T02:14:37;100102.19;;;18.88;91.98
8705;BME280;4389;41.932;25.904;2023-06-14T02:17:05;100095.72;;;18.42;93.97
8705;BME280;4389;41.932;25.904;2023-06-14T02:19:32;100099.56;;;18.33;95.66
8705;BME280;4389;41.932;25.904;2023-06-14T02:21:59;100096.75;;;18.41;95.24
8705;BME280;4389;41.932;25.904;2023-06-14T02:24:26;100104.78;;;18.41;94.75
8705;BME280;4389;41.932;25.904;2023-06-14T02:26:52;100103.91;;;18.34;95.61
8705;BME280;4389;41.932;25.904;2023-06-14T02:29:19;100105.56;;;18.35;95.08
8705;BME280;4389;41.932;25.904;2023-06-14T02:31:47;100106.38;;;18.14;95.64
8705;BME280;4389;41.932;25.904;2023-06-14T02:34:15;100105.56;;;18.14;96.08
8705;BME280;4389;41.932;25.904;2023-06-14T02:36:43;100109.41;;;18.05;96.45
8705;BME280;4389;41.932;25.904;2023-06-14T02:39:10;100115.06;;;17.95;97.15
8705;BME280;4389;41.932;25.904;2023-06-14T02:41:37;100112.16;;;17.90;97.29
8705;BME280;4389;41.932;25.904;2023-06-14T02:44:05;100118.81;;;18.01;96.99
8705;BME280;4389;41.932;25.904;2023-06-14T02:46:32;100115.66;;;17.91;96.39
8705;BME280;4389;41.932;25.904;2023-06-14T02:49:00;100131.22;;;17.81;96.86
8705;BME280;4389;41.932;25.904;2023-06-14T02:51:27;100132.28;;;17.86;96.45
8705;BME280;4389;41.932;25.904;2023-06-14T02:53:54;100127.06;;;17.99;96.35
8705;BME280;4389;41.932;25.904;2023-06-14T02:56:21;100127.63;;;18.16;95.58
8705;BME280;4389;41.932;25.904;2023-06-14T02:58:48;100127.69;;;18.43;94.43
8705;BME280;4389;41.932;25.904;2023-06-14T03:01:16;100127.97;;;18.55;93.40
8705;BME280;4389;41.932;25.904;2023-06-14T03:03:43;100132.75;;;18.93;91.95
8705;BME280;4389;41.932;25.904;2023-06-14T03:06:11;100124.34;;;19.36;89.61
8705;BME280;4389;41.932;25.904;2023-06-14T03:08:39;100133.13;;;19.90;86.86
8705;BME280;4389;41.932;25.904;2023-06-14T03:11:07;100134.88;;;20.30;84.38
8705;BME280;4389;41.932;25.904;2023-06-14T03:13:34;100139.41;;;20.62;82.67
8705;BME280;4389;41.932;25.904;2023-06-14T03:16:01;100135.59;;;21.15;81.25
8705;BME280;4389;41.932;25.904;2023-06-14T03:18:29;100142.84;;;21.65;78.34
8705;BME280;4389;41.932;25.904;2023-06-14T03:20:56;100146.03;;;21.93;76.32
8705;BME280;4389;41.932;25.904;2023-06-14T03:23:25;100142.56;;;22.66;72.89
8705;BME280;4389;41.932;25.904;2023-06-14T03:25:52;100138.19;;;22.90;71.90
8705;BME280;4389;41.932;25.904;2023-06-14T03:28:19;100131.34;;;23.05;70.94
8705;BME280;4389;41.932;25.904;2023-06-14T03:30:46;100137.84;;;23.22;69.60
8705;BME280;4389;41.932;25.904;2023-06-14T03:33:13;100140.59;;;23.99;67.04
8705;BME280;4389;41.932;25.904;2023-06-14T03:35:41;100142.25;;;24.64;64.31
8705;BME280;4389;41.932;25.904;2023-06-14T03:38:08;100150.97;;;24.89;62.65
8705;BME280;4389;41.932;25.904;2023-06-14T03:40:36;100146.84;;;24.75;62.80
8705;BME280;4389;41.932;25.904;2023-06-14T03:43:03;100156.81;;;25.32;61.19
8705;BME280;4389;41.932;25.904;2023-06-14T03:45:29;100163.19;;;25.37;60.14
8705;BME280;4389;41.932;25.904;2023-06-14T03:47:56;100162.63;;;26.03;59.03
8705;BME280;4389;41.932;25.904;2023-06-14T03:50:23;100154.28;;;26.87;56.29
8705;BME280;4389;41.932;25.904;2023-06-14T03:52:50;100163.50;;;27.19;54.33
8705;BME280;4389;41.932;25.904;2023-06-14T03:55:17;100167.88;;;28.11;52.11
8705;BME280;4389;41.932;25.904;2023-06-14T03:57:46;100169.56;;;28.75;50.88
8705;BME280;4389;41.932;25.904;2023-06-14T04:00:13;100172.06;;;29.23;49.09
8705;BME280;4389;41.932;25.904;2023-06-14T04:02:40;100178.91;;;29.82;47.31
8705;BME280;4389;41.932;25.904;2023-06-14T04:05:09;100168.84;;;29.97;47.06
8705;BME280;4389;41.932;25.904;2023-06-14T04:07:36;100177.44;;;30.45;44.75
8705;BME280;4389;41.932;25.904;2023-06-14T04:10:06;100170.16;;;29.75;46.15
8705;BME280;4389;41.932;25.904;2023-06-14T04:12:33;100180.97;;;30.46;44.44
8705;BME280;4389;41.932;25.904;2023-06-14T04:15:02;100188.59;;;31.29;42.17
8705;BME280;4389;41.932;25.904;2023-06-14T04:17:31;100188.06;;;31.12;42.52
8705;BME280;4389;41.932;25.904;2023-06-14T04:19:59;100193.81;;;31.10;42.20
8705;BME280;4389;41.932;25.904;2023-06-14T04:22:26;100191.59;;;30.27;44.44
8705;BME280;4389;41.932;25.904;2023-06-14T04:24:54;100199.25;;;30.35;44.33
8705;BME280;4389;41.932;25.904;2023-06-14T04:27:22;100195.59;;;31.60;41.39
8705;BME280;4389;41.932;25.904;2023-06-14T04:29:51;100197.69;;;31.88;41.07
8705;BME280;4389;41.932;25.904;2023-06-14T04:32:24;100201.47;;;31.03;42.89
8705;BME280;4389;41.932;25.904;2023-06-14T04:34:53;100207.72;;;30.29;45.07
8705;BME280;4389;41.932;25.904;2023-06-14T04:37:20;100209.59;;;29.06;47.66
8705;BME280;4389;41.932;25.904;2023-06-14T04:39:47;100206.88;;;27.52;53.09
8705;BME280;4389;41.932;25.904;2023-06-14T04:42:14;100204.94;;;26.32;58.02
8705;BME280;4389;41.932;25.904;2023-06-14T04:44:41;100204.97;;;25.53;62.68
8705;BME280;4389;41.932;25.904;2023-06-14T04:47:09;100206.75;;;25.87;62.65
8705;BME280;4389;41.932;25.904;2023-06-14T04:49:38;100216.50;;;26.11;60.86
8705;BME280;4389;41.932;25.904;2023-06-14T04:52:06;100219.19;;;25.83;61.85
8705;BME280;4389;41.932;25.904;2023-06-14T04:54:35;100211.50;;;25.80;61.43
8705;BME280;4389;41.932;25.904;2023-06-14T04:57:04;100224.88;;;26.37;59.53
8705;BME280;4389;41.932;25.904;2023-06-14T04:59:31;100227.00;;;26.52;58.60
8705;BME280;4389;41.932;25.904;2023-06-14T05:02:01;100218.56;;;26.20;59.87
8705;BME280;4389;41.932;25.904;2023-06-14T05:04:28;100230.59;;;25.85;60.94
8705;BME280;4389;41.932;25.904;2023-06-14T05:06:57;100220.06;;;25.03;63.90
8705;BME280;4389;41.932;25.904;2023-06-14T05:09:23;100229.41;;;24.43;66.13
8705;BME280;4389;41.932;25.904;2023-06-14T05:11:50;100233.59;;;24.80;65.06
8705;BME280;4389;41.932;25.904;2023-06-14T05:14:17;100229.25;;;24.79;65.29
8705;BME280;4389;41.932;25.904;2023-06-14T05:16:44;100228.66;;;24.65;65.74
8705;BME280;4389;41.932;25.904;2023-06-14T05:19:11;100232.31;;;24.71;65.53
8705;BME280;4389;41.932;25.904;2023-06-14T05:21:38;100239.16;;;24.85;64.83
8705;BME280;4389;41.932;25.904;2023-06-14T05:24:06;100233.28;;;24.47;65.95
8705;BME280;4389;41.932;25.904;2023-06-14T05:26:34;100244.91;;;24.36;67.20
8705;BME280;4389;41.932;25.904;2023-06-14T05:29:01;100242.34;;;24.41;65.71
8705;BME280;4389;41.932;25.904;2023-06-14T05:31:28;100243.34;;;24.58;65.33
8705;BME280;4389;41.932;25.904;2023-06-14T05:33:55;100247.78;;;24.93;64.43
8705;BME280;4389;41.932;25.904;2023-06-14T05:36:22;100248.38;;;25.30;61.89
8705;BME280;4389;41.932;25.904;2023-06-14T05:38:49;100251.66;;;25.32;61.36
8705;BME280;4389;41.932;25.904;2023-06-14T05:41:24;100258.97;;;25.43;61.54
8705;BME280;4389;41.932;25.904;2023-06-14T05:43:51;100257.38;;;25.81;59.58
8705;BME280;4389;41.932;25.904;2023-06-14T05:46:18;100254.78;;;25.86;59.23
8705;BME280;4389;41.932;25.904;2023-06-14T05:48:47;100260.28;;;26.31;57.31
8705;BME280;4389;41.932;25.904;2023-06-14T05:51:14;100262.78;;;26.60;56.54
8705;BME280;4389;41.932;25.904;2023-06-14T05:53:44;100262.59;;;26.67;56.83
8705;BME280;4389;41.932;25.904;2023-06-14T05:56:11;100263.47;;;27.17;55.17
8705;BME280;4389;41.932;25.904;2023-06-14T05:58:40;100267.84;;;27.56;54.28
8705;BME280;4389;41.932;25.904;2023-06-14T06:01:06;100262.91;;;27.15;55.97
8705;BME280;4389;41.932;25.904;2023-06-14T06:03:33;100263.72;;;27.32;55.16
8705;BME280;4389;41.932;25.904;2023-06-14T06:06:01;100270.69;;;28.04;52.67
8705;BME280;4389;41.932;25.904;2023-06-14T06:08:28;100271.63;;;28.36;50.83
8705;BME280;4389;41.932;25.904;2023-06-14T06:10:55;100271.94;;;28.18;51.48
8705;BME280;4389;41.932;25.904;2023-06-14T06:13:22;100273.03;;;27.95;52.37
8705;BME280;4389;41.932;25.904;2023-06-14T06:15:50;100286.38;;;28.40;51.07
8705;BME280;4389;41.932;25.904;2023-06-14T06:18:17;100284.63;;;28.55;50.77
8705;BME280;4389;41.932;25.904;2023-06-14T06:20:44;100279.78;;;28.89;49.44
8705;BME280;4389;41.932;25.904;2023-06-14T06:23:12;100286.53;;;28.55;49.05
8705;BME280;4389;41.932;25.904;2023-06-14T06:25:39;100284.44;;;28.62;49.38
8705;BME280;4389;41.932;25.904;2023-06-14T06:28:07;100276.75;;;28.59;48.82
8705;BME280;4389;41.932;25.904;2023-06-14T06:30:34;100273.41;;;28.04;50.05
8705;BME280;4389;41.932;25.904;2023-06-14T06:33:03;100283.59;;;27.92;51.71
8705;BME280;4389;41.932;25.904;2023-06-14T06:35:29;100278.16;;;27.92;47.00
8705;BME280;4389;41.932;25.904;2023-06-14T06:37:59;100274.94;;;27.57;46.71
8705;BME280;4389;41.932;25.904;2023-06-14T06:40:26;100284.56;;;27.64;45.72
8705;BME280;4389;41.932;25.904;2023-06-14T06:42:53;100280.91;;;28.18;45.39
8705;BME280;4389;41.932;25.904;2023-06-14T06:45:20;100283.66;;;28.40;45.46
8705;BME280;4389;41.932;25.904;2023-06-14T06:47:48;100288.19;;;28.34;48.03
8705;BME280;4389;41.932;25.904;2023-06-14T06:50:18;100287.88;;;27.88;50.71
8705;BME280;4389;41.932;25.904;2023-06-14T06:52:45;100273.34;;;27.23;52.90
8705;BME280;4389;41.932;25.904;2023-06-14T06:55:12;100272.78;;;27.21;53.19
8705;BME280;4389;41.932;25.904;2023-06-14T06:57:39;100268.38;;;26.87;53.68
8705;BME280;4389;41.932;25.904;2023-06-14T07:00:08;100277.13;;;26.16;56.57
8705;BME280;4389;41.932;25.904;2023-06-14T07:02:35;100264.69;;;25.92;56.17
8705;BME280;4389;41.932;25.904;2023-06-14T07:05:02;100270.44;;;25.96;57.59
8705;BME280;4389;41.932;25.904;2023-06-14T07:07:31;100263.97;;;26.25;57.60
8705;BME280;4389;41.932;25.904;2023-06-14T07:09:58;100266.50;;;26.15;58.46
8705;BME280;4389;41.932;25.904;2023-06-14T07:12:25;100261.84;;;26.27;55.71
8705;BME280;4389;41.932;25.904;2023-06-14T07:14:52;100268.53;;;26.08;53.76
8705;BME280;4389;41.932;25.904;2023-06-14T07:17:19;100268.06;;;25.88;55.41
8705;BME280;4389;41.932;25.904;2023-06-14T07:19:46;100271.44;;;25.67;55.33
8705;BME280;4389;41.932;25.904;2023-06-14T07:22:13;100262.88;;;25.24;55.51
8705;BME280;4389;41.932;25.904;2023-06-14T07:24:41;100264.72;;;25.58;55.20
8705;BME280;4389;41.932;25.904;2023-06-14T07:27:09;100254.19;;;25.73;54.74
8705;BME280;4389;41.932;25.904;2023-06-14T07:29:36;100256.66;;;25.86;55.63
8705;BME280;4389;41.932;25.904;2023-06-14T07:32:05;100256.53;;;25.81;55.58
8705;BME280;4389;41.932;25.904;2023-06-14T07:34:32;100262.06;;;25.86;54.83
8705;BME280;4389;41.932;25.904;2023-06-14T07:36:59;100260.88;;;26.05;53.88
8705;BME280;4389;41.932;25.904;2023-06-14T07:39:26;100255.69;;;26.03;53.15
8705;BME280;4389;41.932;25.904;2023-06-14T07:41:54;100247.41;;;25.59;54.30
8705;BME280;4389;41.932;25.904;2023-06-14T07:44:21;100257.22;;;25.88;54.49
8705;BME280;4389;41.932;25.904;2023-06-14T07:46:48;100246.41;;;25.76;54.84
8705;BME280;4389;41.932;25.904;2023-06-14T07:49:15;100263.50;;;26.28;54.22
8705;BME280;4389;41.932;25.904;2023-06-14T07:51:42;100265.81;;;26.36;52.25
8705;BME280;4389;41.932;25.904;2023-06-14T07:54:11;100263.00;;;26.31;50.48
8705;BME280;4389;41.932;25.904;2023-06-14T07:56:38;100252.75;;;26.33;51.02
8705;BME280;4389;41.932;25.904;2023-06-14T07:59:06;100254.75;;;26.82;49.82
8705;BME280;4389;41.932;25.904;2023-06-14T08:01:34;100254.06;;;26.75;50.12
8705;BME280;4389;41.932;25.904;2023-06-14T08:04:01;100255.56;;;26.99;50.27
8705;BME280;4389;41.932;25.904;2023-06-14T08:06:28;100262.94;;;26.70;49.24
8705;BME280;4389;41.932;25.904;2023-06-14T08:08:56;100263.78;;;26.71;49.57
8705;BME280;4389;41.932;25.904;2023-06-14T08:11:22;100268.56;;;26.97;48.71
8705;BME280;4389;41.932;25.904;2023-06-14T08:13:50;100259.00;;;26.78;49.07
8705;BME280;4389;41.932;25.904;2023-06-14T08:16:19;100271.03;;;26.82;49.48
8705;BME280;4389;41.932;25.904;2023-06-14T08:18:45;100264.19;;;26.79;48.69
8705;BME280;4389;41.932;25.904;2023-06-14T08:21:12;100270.19;;;26.65;49.84
8705;BME280;4389;41.932;25.904;2023-06-14T08:23:40;100266.50;;;26.71;49.41
8705;BME280;4389;41.932;25.904;2023-06-14T08:26:08;100259.50;;;26.75;50.54
8705;BME280;4389;41.932;25.904;2023-06-14T08:28:35;100263.59;;;26.94;48.70
8705;BME280;4389;41.932;25.904;2023-06-14T08:31:02;100268.38;;;26.70;49.86
8705;BME280;4389;41.932;25.904;2023-06-14T08:33:30;100273.28;;;26.57;48.54
8705;BME280;4389;41.932;25.904;2023-06-14T08:35:59;100268.22;;;26.77;48.52
8705;BME280;4389;41.932;25.904;2023-06-14T08:38:26;100268.06;;;27.00;47.05
8705;BME280;4389;41.932;25.904;2023-06-14T08:40:57;100275.47;;;27.04;48.71
8705;BME280;4389;41.932;25.904;2023-06-14T08:43:24;100272.31;;;26.96;47.54
8705;BME280;4389;41.932;25.904;2023-06-14T08:45:53;100278.84;;;26.95;45.83
8705;BME280;4389;41.932;25.904;2023-06-14T08:48:26;100278.03;;;27.11;44.63
8705;BME280;4389;41.932;25.904;2023-06-14T08:50:56;100270.06;;;27.21;44.90
8705;BME280;4389;41.932;25.904;2023-06-14T08:53:28;100271.03;;;27.15;44.70
8705;BME280;4389;41.932;25.904;2023-06-14T08:55:58;100268.72;;;27.40;45.71
8705;BME280;4389;41.932;25.904;2023-06-14T08:58:27;100277.13;;;27.22;47.72
8705;BME280;4389;41.932;25.904;2023-06-14T09:00:55;100275.97;;;26.85;48.00
8705;BME280;4389;41.932;25.904;2023-06-14T09:03:23;100277.66;;;27.19;46.16
8705;BME280;4389;41.932;25.904;2023-06-14T09:05:57;100289.94;;;27.21;45.52
8705;BME280;4389;41.932;25.904;2023-06-14T09:08:26;100285.38;;;27.27;45.10
8705;BME280;4389;41.932;25.904;2023-06-14T09:10:56;100280.69;;;27.39;45.69
8705;BME280;4389;41.932;25.904;2023-06-14T09:13:23;100283.00;;;27.52;45.37
8705;BME280;4389;41.932;25.904;2023-06-14T09:15:50;100280.47;;;27.62;43.73
8705;BME280;4389;41.932;25.904;2023-06-14T09:18:17;100284.25;;;27.61;44.26
8705;BME280;4389;41.932;25.904;2023-06-14T09:20:45;100286.88;;;27.94;43.41
8705;BME280;4389;41.932;25.904;2023-06-14T09:23:14;100284.97;;;28.16;43.60
8705;BME280;4389;41.932;25.904;2023-06-14T09:25:46;100285.72;;;28.33;43.30
8705;BME280;4389;41.932;25.904;2023-06-14T09:28:13;100281.94;;;28.12;44.02
8705;BME280;4389;41.932;25.904;2023-06-14T09:30:40;100277.63;;;27.95;45.23
8705;BME280;4389;41.932;25.904;2023-06-14T09:33:07;100284.94;;;28.11;43.91
8705;BME280;4389;41.932;25.904;2023-06-14T09:35:34;100284.66;;;28.12;43.93
8705;BME280;4389;41.932;25.904;2023-06-14T09:38:01;100280.16;;;28.23;43.54
8705;BME280;4389;41.932;25.904;2023-06-14T09:40:33;100279.66;;;28.26;42.87
8705;BME280;4389;41.932;25.904;2023-06-14T09:43:04;100273.63;;;28.45;41.82
8705;BME280;4389;41.932;25.904;2023-06-14T09:45:33;100280.53;;;28.53;40.91
8705;BME280;4389;41.932;25.904;2023-06-14T09:48:01;100271.47;;;28.74;41.99
8705;BME280;4389;41.932;25.904;2023-06-14T09:50:28;100266.50;;;28.97;40.90
8705;BME280;4389;41.932;25.904;2023-06-14T09:52:59;100277.88;;;29.21;40.64
8705;BME280;4389;41.932;25.904;2023-06-14T09:55:31;100267.84;;;28.95;41.56
8705;BME280;4389;41.932;25.904;2023-06-14T09:58:04;100272.53;;;28.73;40.93
8705;BME280;4389;41.932;25.904;2023-06-14T10:00:32;100264.19;;;28.53;41.45
8705;BME280;4389;41.932;25.904;2023-06-14T10:03:05;100269.13;;;28.87;41.92
8705;BME280;4389;41.932;25.904;2023-06-14T10:05:34;100262.38;;;28.95;41.62
8705;BME280;4389;41.932;25.904;2023-06-14T10:08:04;100257.44;;;28.92;41.77
8705;BME280;4389;41.932;25.904;2023-06-14T10:10:35;100248.13;;;28.88;41.51
8705;BME280;4389;41.932;25.904;2023-06-14T10:13:05;100246.19;;;28.83;42.00
8705;BME280;4389;41.932;25.904;2023-06-14T10:15:37;100240.78;;;28.88;42.02
8705;BME280;4389;41.932;25.904;2023-06-14T10:18:10;100241.28;;;29.12;42.05
8705;BME280;4389;41.932;25.904;2023-06-14T10:20:47;100237.06;;;29.36;41.49
8705;BME280;4389;41.932;25.904;2023-06-14T10:23:18;100236.25;;;28.99;41.92
8705;BME280;4389;41.932;25.904;2023-06-14T10:25:49;100229.88;;;28.30;43.10
8705;BME280;4389;41.932;25.904;2023-06-14T10:28:17;100236.31;;;28.72;42.77
8705;BME280;4389;41.932;25.904;2023-06-14T10:31:05;100232.34;;;28.90;41.15
8705;BME280;4389;41.932;25.904;2023-06-14T10:33:32;100230.88;;;29.09;41.51
8705;BME280;4389;41.932;25.904;2023-06-14T10:36:27;100225.53;;;29.24;41.86
8705;BME280;4389;41.932;25.904;2023-06-14T10:39:05;100230.53;;;29.42;41.73
8705;BME280;4389;41.932;25.904;2023-06-14T10:41:37;100227.63;;;29.12;40.29
8705;BME280;4389;41.932;25.904;2023-06-14T10:44:41;100217.03;;;29.15;41.21
8705;BME280;4389;41.932;25.904;2023-06-14T10:47:23;100224.09;;;29.58;40.64
8705;BME280;4389;41.932;25.904;2023-06-14T10:49:52;100213.84;;;29.28;40.65
8705;BME280;4389;41.932;25.904;2023-06-14T10:52:25;100213.22;;;29.63;40.84
8705;BME280;4389;41.932;25.904;2023-06-14T10:55:11;100219.22;;;29.18;41.28
8705;BME280;4389;41.932;25.904;2023-06-14T10:57:42;100210.25;;;29.23;41.25
8705;BME280;4389;41.932;25.904;2023-06-14T11:00:12;100212.88;;;29.08;41.89
8705;BME280;4389;41.932;25.904;2023-06-14T11:05:51;100206.09;;;29.10;42.28
8705;BME280;4389;41.932;25.904;2023-06-14T11:11:15;100198.25;;;29.19;42.43
8705;BME280;4389;41.932;25.904;2023-06-14T11:13:45;100202.69;;;29.35;42.83
8705;BME280;4389;41.932;25.904;2023-06-14T11:16:12;100204.06;;;29.37;44.41
8705;BME280;4389;41.932;25.904;2023-06-14T11:18:40;100208.34;;;29.23;41.40
8705;BME280;4389;41.932;25.904;2023-06-14T11:21:07;100202.94;;;28.92;42.52
8705;BME280;4389;41.932;25.904;2023-06-14T11:23:34;100204.69;;;28.40;42.72
8705;BME280;4389;41.932;25.904;2023-06-14T11:26:01;100197.13;;;28.47;43.91
8705;BME280;4389;41.932;25.904;2023-06-14T11:28:37;100194.50;;;28.93;41.86
8705;BME280;4389;41.932;25.904;2023-06-14T11:31:05;100191.19;;;29.28;41.48
8705;BME280;4389;41.932;25.904;2023-06-14T11:33:32;100189.53;;;29.73;40.54
8705;BME280;4389;41.932;25.904;2023-06-14T11:36:01;100192.63;;;30.07;40.20
8705;BME280;4389;41.932;25.904;2023-06-14T11:38:28;100192.72;;;30.32;39.58
8705;BME280;4389;41.932;25.904;2023-06-14T11:40:58;100202.00;;;30.50;40.03
8705;BME280;4389;41.932;25.904;2023-06-14T11:43:25;100191.69;;;29.66;40.22
8705;BME280;4389;41.932;25.904;2023-06-14T11:45:52;100189.66;;;29.00;41.40
8705;BME280;4389;41.932;25.904;2023-06-14T11:48:21;100187.09;;;29.25;41.24
8705;BME280;4389;41.932;25.904;2023-06-14T11:50:49;100182.56;;;29.46;40.59
8705;BME280;4389;41.932;25.904;2023-06-14T11:53:16;100185.19;;;29.77;40.54
8705;BME280;4389;41.932;25.904;2023-06-14T11:55:43;100183.31;;;29.88;40.60
8705;BME280;4389;41.932;25.904;2023-06-14T11:58:13;100176.28;;;30.12;39.14
8705;BME280;4389;41.932;25.904;2023-06-14T12:00:39;100185.59;;;30.50;38.10
8705;BME280;4389;41.932;25.904;2023-06-14T12:03:07;100179.31;;;31.10;37.53
8705;BME280;4389;41.932;25.904;2023-06-14T12:05:35;100181.78;;;31.16;37.57
8705;BME280;4389;41.932;25.904;2023-06-14T12:08:03;100183.00;;;29.79;40.16
8705;BME280;4389;41.932;25.904;2023-06-14T12:10:39;100180.25;;;29.74;40.33
8705;BME280;4389;41.932;25.904;2023-06-14T12:13:06;100181.09;;;29.75;39.87
8705;BME280;4389;41.932;25.904;2023-06-14T12:15:33;100182.78;;;30.06;39.30
8705;BME280;4389;41.932;25.904;2023-06-14T12:18:00;100170.84;;;30.41;37.95
8705;BME280;4389;41.932;25.904;2023-06-14T12:20:29;100181.78;;;30.41;39.65
8705;BME280;4389;41.932;25.904;2023-06-14T12:22:59;100173.31;;;30.33;39.15
8705;BME280;4389;41.932;25.904;2023-06-14T12:25:29;100169.13;;;30.01;39.30
8705;BME280;4389;41.932;25.904;2023-06-14T12:27:58;100174.16;;;30.53;38.44
8705;BME280;4389;41.932;25.904;2023-06-14T12:30:25;100159.38;;;30.84;38.48
8705;BME280;4389;41.932;25.904;2023-06-14T12:33:09;100172.28;;;30.69;39.20
8705;BME280;4389;41.932;25.904;2023-06-14T12:35:37;100162.13;;;30.39;38.92
8705;BME280;4389;41.932;25.904;2023-06-14T12:38:05;100157.66;;;29.99;39.76
8705;BME280;4389;41.932;25.904;2023-06-14T12:40:32;100149.44;;;29.94;40.19
8705;BME280;4389;41.932;25.904;2023-06-14T12:43:21;100145.16;;;30.13;39.68
8705;BME280;4389;41.932;25.904;2023-06-14T12:45:49;100149.53;;;30.48;39.40
8705;BME280;4389;41.932;25.904;2023-06-14T12:48:16;100149.25;;;30.95;38.20
8705;BME280;4389;41.932;25.904;2023-06-14T12:50:42;100152.47;;;31.32;37.53
8705;BME280;4389;41.932;25.904;2023-06-14T12:53:11;100151.03;;;31.49;37.46
8705;BME280;4389;41.932;25.904;2023-06-14T12:55:37;100145.16;;;30.92;38.06
8705;BME280;4389;41.932;25.904;2023-06-14T12:58:04;100138.00;;;31.21;39.63
8705;BME280;4389;41.932;25.904;2023-06-14T13:00:31;100137.47;;;30.99;40.32
8705;BME280;4389;41.932;25.904;2023-06-14T13:02:58;100136.97;;;30.72;39.72
8705;BME280;4389;41.932;25.904;2023-06-14T13:05:25;100136.97;;;30.72;39.20
8705;BME280;4389;41.932;25.904;2023-06-14T13:07:52;100133.16;;;30.88;38.94
8705;BME280;4389;41.932;25.904;2023-06-14T13:10:20;100131.66;;;31.31;38.80
8705;BME280;4389;41.932;25.904;2023-06-14T13:12:47;100123.56;;;31.69;38.33